sensor_id;sensor_type;location;lat;lon;timestamp;P1;durP1;ratioP1;P2;durP2;ratioP2
17201;SDS011;8717;53.588;10.176;2023-05-10T00:01:40;6.07;;;3.20;;
17201;SDS011;8717;53.588;10.176;2023-05-10T00:04:06;7.63;;;3.40;;
17201;SDS011;8717;53.588;10.176;2023-05-10T00:06:33;5.27;;;3.17;;
17201;SDS011;8717;53.588;10.176;2023-05-10T00:09:00;3.80;;;3.20;;
17201;SDS011;8717;53.588;10.176;2023-05-10T00:11:29;5.10;;;3.37;;
17201;SDS011;8717;53.588;10.176;2023-05-10T00:13:56;4.10;;;2.77;;
17201;SDS011;8717;53.588;10.176;2023-05-10T00:16:23;3.97;;;3.40;;
17201;SDS011;8717;53.588;10.176;2023-05-10T00:18:50;5.10;;;3.40;;
17201;SDS011;8717;53.588;10.176;2023-05-10T00:21:17;4.70;;;2.97;;
17201;SDS011;8717;53.588;10.176;2023-05-10T00:23:43;4.77;;;3.20;;
17201;SDS011;8717;53.588;10.176;2023-05-10T00:26:10;4.73;;;3.10;;
17201;SDS011;8717;53.588;10.176;2023-05-10T00:28:38;3.83;;;3.20;;
17201;SDS011;8717;53.588;10.176;2023-05-10T00:31:05;4.13;;;3.27;;
17201;SDS011;8717;53.588;10.176;2023-05-10T00:33:32;4.90;;;3.37;;
17201;SDS011;8717;53.588;10.176;2023-05-10T00:35:58;7.30;;;2.90;;
17201;SDS011;8717;53.588;10.176;2023-05-10T00:38:25;4.63;;;3.10;;
17201;SDS011;8717;53.588;10.176;2023-05-10T00:40:52;5.30;;;2.97;;
17201;SDS011;8717;53.588;10.176;2023-05-10T00:43:25;5.97;;;3.23;;
17201;SDS011;8717;53.588;10.176;2023-05-10T00:45:53;4.77;;;3.07;;
17201;SDS011;8717;53.588;10.176;2023-05-10T00:48:20;4.13;;;3.30;;
17201;SDS011;8717;53.588;10.176;2023-05-10T00:50:47;3.70;;;2.90;;
17201;SDS011;8717;53.588;10.176;2023-05-10T00:53:14;4.67;;;3.03;;
17201;SDS011;8717;53.588;10.176;2023-05-10T00:55:42;4.73;;;3.03;;
17201;SDS011;8717;53.588;10.176;2023-05-10T00:58:09;8.33;;;3.23;;
17201;SDS011;8717;53.588;10.176;2023-05-10T01:00:36;9.00;;;3.03;;
17201;SDS011;8717;53.588;10.176;2023-05-10T01:03:08;5.63;;;2.80;;
17201;SDS011;8717;53.588;10.176;2023-05-10T01:05:36;5.63;;;3.13;;
17201;SDS011;8717;53.588;10.176;2023-05-10T01:08:03;6.53;;;3.17;;
17201;SDS011;8717;53.588;10.176;2023-05-10T01:10:30;5.93;;;3.03;;
17201;SDS011;8717;53.588;10.176;2023-05-10T01:12:57;3.67;;;3.00;;
17201;SDS011;8717;53.588;10.176;2023-05-10T01:15:25;6.07;;;3.30;;
17201;SDS011;8717;53.588;10.176;2023-05-10T01:17:52;4.70;;;3.07;;
17201;SDS011;8717;53.588;10.176;2023-05-10T01:20:21;3.33;;;2.80;;
17201;SDS011;8717;53.588;10.176;2023-05-10T01:23:09;5.17;;;3.20;;
17201;SDS011;8717;53.588;10.176;2023-05-10T01:28:50;7.00;;;3.43;;
17201;SDS011;8717;53.588;10.176;2023-05-10T01:31:59;5.77;;;3.10;;
17201;SDS011;8717;53.588;10.176;2023-05-10T01:34:41;4.33;;;3.10;;
17201;SDS011;8717;53.588;10.176;2023-05-10T01:37:15;4.53;;;3.10;;
17201;SDS011;8717;53.588;10.176;2023-05-10T01:39:47;5.30;;;3.30;;
17201;SDS011;8717;53.588;10.176;2023-05-10T01:42:20;7.97;;;3.33;;
17201;SDS011;8717;53.588;10.176;2023-05-10T01:44:53;4.77;;;3.40;;
17201;SDS011;8717;53.588;10.176;2023-05-10T01:47:27;5.73;;;3.50;;
17201;SDS011;8717;53.588;10.176;2023-05-10T01:50:02;5.80;;;3.40;;
17201;SDS011;8717;53.588;10.176;2023-05-10T01:52:32;6.27;;;3.23;;
17201;SDS011;8717;53.588;10.176;2023-05-10T01:55:05;6.63;;;3.50;;
17201;SDS011;8717;53.588;10.176;2023-05-10T01:57:35;3.73;;;2.87;;
17201;SDS011;8717;53.588;10.176;2023-05-10T02:00:06;4.00;;;3.40;;
17201;SDS011;8717;53.588;10.176;2023-05-10T02:02:42;4.30;;;3.53;;
17201;SDS011;8717;53.588;10.176;2023-05-10T02:05:12;5.63;;;3.37;;
17201;SDS011;8717;53.588;10.176;2023-05-10T02:07:41;4.03;;;3.20;;
17201;SDS011;8717;53.588;10.176;2023-05-10T02:10:09;4.23;;;3.20;;
17201;SDS011;8717;53.588;10.176;2023-05-10T02:12:39;5.83;;;3.20;;
17201;SDS011;8717;53.588;10.176;2023-05-10T02:15:08;6.30;;;3.40;;
17201;SDS011;8717;53.588;10.176;2023-05-10T02:17:37;3.73;;;3.37;;
17201;SDS011;8717;53.588;10.176;2023-05-10T02:20:07;5.80;;;3.50;;
17201;SDS011;8717;53.588;10.176;2023-05-10T02:22:36;6.27;;;3.70;;
17201;SDS011;8717;53.588;10.176;2023-05-10T02:25:04;3.97;;;3.07;;
17201;SDS011;8717;53.588;10.176;2023-05-10T02:27:34;5.37;;;3.30;;
17201;SDS011;8717;53.588;10.176;2023-05-10T02:30:03;4.30;;;3.50;;
17201;SDS011;8717;53.588;10.176;2023-05-10T02:32:32;5.20;;;3.00;;
17201;SDS011;8717;53.588;10.176;2023-05-10T02:35:01;5.03;;;3.70;;
17201;SDS011;8717;53.588;10.176;2023-05-10T02:37:30;4.63;;;3.13;;
17201;SDS011;8717;53.588;10.176;2023-05-10T02:39:58;5.00;;;3.23;;
17201;SDS011;8717;53.588;10.176;2023-05-10T02:42:26;5.43;;;3.50;;
17201;SDS011;8717;53.588;10.176;2023-05-10T02:44:54;4.40;;;3.50;;
17201;SDS011;8717;53.588;10.176;2023-05-10T02:47:25;4.47;;;3.47;;
17201;SDS011;8717;53.588;10.176;2023-05-10T02:49:53;4.53;;;3.67;;
17201;SDS011;8717;53.588;10.176;2023-05-10T02:52:21;3.83;;;2.77;;
17201;SDS011;8717;53.588;10.176;2023-05-10T02:54:52;6.60;;;3.50;;
17201;SDS011;8717;53.588;10.176;2023-05-10T02:57:22;5.77;;;3.40;;
17201;SDS011;8717;53.588;10.176;2023-05-10T02:59:53;3.80;;;3.37;;
17201;SDS011;8717;53.588;10.176;2023-05-10T03:02:20;6.83;;;3.30;;
17201;SDS011;8717;53.588;10.176;2023-05-10T03:04:47;4.30;;;3.67;;
17201;SDS011;8717;53.588;10.176;2023-05-10T03:07:14;5.33;;;3.30;;
17201;SDS011;8717;53.588;10.176;2023-05-10T03:09:42;5.10;;;3.20;;
17201;SDS011;8717;53.588;10.176;2023-05-10T03:12:11;3.93;;;2.80;;
17201;SDS011;8717;53.588;10.176;2023-05-10T03:14:45;4.27;;;3.23;;
17201;SDS011;8717;53.588;10.176;2023-05-10T03:17:22;5.17;;;3.30;;
17201;SDS011;8717;53.588;10.176;2023-05-10T03:19:56;5.97;;;3.30;;
17201;SDS011;8717;53.588;10.176;2023-05-10T03:22:25;6.63;;;3.83;;
17201;SDS011;8717;53.588;10.176;2023-05-10T03:24:56;6.10;;;3.40;;
17201;SDS011;8717;53.588;10.176;2023-05-10T03:27:28;5.70;;;3.47;;
17201;SDS011;8717;53.588;10.176;2023-05-10T03:29:59;6.67;;;3.87;;
17201;SDS011;8717;53.588;10.176;2023-05-10T03:32:30;5.50;;;2.90;;
17201;SDS011;8717;53.588;10.176;2023-05-10T03:34:59;4.17;;;3.17;;
17201;SDS011;8717;53.588;10.176;2023-05-10T03:37:27;6.63;;;3.80;;
17201;SDS011;8717;53.588;10.176;2023-05-10T03:39:53;5.67;;;4.00;;
17201;SDS011;8717;53.588;10.176;2023-05-10T03:42:20;5.50;;;3.57;;
17201;SDS011;8717;53.588;10.176;2023-05-10T03:44:48;3.83;;;3.40;;
17201;SDS011;8717;53.588;10.176;2023-05-10T03:47:16;4.60;;;3.40;;
17201;SDS011;8717;53.588;10.176;2023-05-10T03:49:43;4.40;;;3.10;;
17201;SDS011;8717;53.588;10.176;2023-05-10T03:52:11;4.80;;;3.50;;
17201;SDS011;8717;53.588;10.176;2023-05-10T03:54:38;5.70;;;3.43;;
17201;SDS011;8717;53.588;10.176;2023-05-10T03:57:05;4.70;;;3.73;;
17201;SDS011;8717;53.588;10.176;2023-05-10T03:59:32;4.20;;;3.23;;
17201;SDS011;8717;53.588;10.176;2023-05-10T04:02:00;5.30;;;3.20;;
17201;SDS011;8717;53.588;10.176;2023-05-10T04:04:27;5.30;;;3.70;;
17201;SDS011;8717;53.588;10.176;2023-05-10T04:06:53;7.13;;;3.90;;
17201;SDS011;8717;53.588;10.176;2023-05-10T04:09:20;4.20;;;3.43;;
17201;SDS011;8717;53.588;10.176;2023-05-10T04:11:47;5.10;;;3.40;;
17201;SDS011;8717;53.588;10.176;2023-05-10T04:14:14;6.00;;;3.63;;
17201;SDS011;8717;53.588;10.176;2023-05-10T04:16:41;7.07;;;3.93;;
17201;SDS011;8717;53.588;10.176;2023-05-10T04:19:09;3.50;;;3.20;;
17201;SDS011;8717;53.588;10.176;2023-05-10T04:21:36;4.97;;;3.33;;
17201;SDS011;8717;53.588;10.176;2023-05-10T04:24:03;5.23;;;3.43;;
17201;SDS011;8717;53.588;10.176;2023-05-10T04:26:30;5.90;;;3.70;;
17201;SDS011;8717;53.588;10.176;2023-05-10T04:28:56;6.53;;;3.80;;
17201;SDS011;8717;53.588;10.176;2023-05-10T04:31:23;7.30;;;3.80;;
17201;SDS011;8717;53.588;10.176;2023-05-10T04:33:51;5.37;;;3.63;;
17201;SDS011;8717;53.588;10.176;2023-05-10T04:36:19;6.03;;;3.60;;
17201;SDS011;8717;53.588;10.176;2023-05-10T04:38:46;5.53;;;4.10;;
17201;SDS011;8717;53.588;10.176;2023-05-10T04:41:13;4.47;;;3.57;;
17201;SDS011;8717;53.588;10.176;2023-05-10T04:43:40;6.67;;;4.20;;
17201;SDS011;8717;53.588;10.176;2023-05-10T04:46:06;7.90;;;4.00;;
17201;SDS011;8717;53.588;10.176;2023-05-10T04:48:33;4.87;;;3.83;;
17201;SDS011;8717;53.588;10.176;2023-05-10T04:51:00;4.57;;;3.80;;
17201;SDS011;8717;53.588;10.176;2023-05-10T04:53:30;6.07;;;3.87;;
17201;SDS011;8717;53.588;10.176;2023-05-10T04:55:56;5.13;;;3.70;;
17201;SDS011;8717;53.588;10.176;2023-05-10T04:58:23;4.93;;;3.87;;
17201;SDS011;8717;53.588;10.176;2023-05-10T05:00:50;6.10;;;3.67;;
17201;SDS011;8717;53.588;10.176;2023-05-10T05:03:16;5.17;;;3.90;;
17201;SDS011;8717;53.588;10.176;2023-05-10T05:05:43;5.77;;;4.00;;
17201;SDS011;8717;53.588;10.176;2023-05-10T05:08:10;5.87;;;4.33;;
17201;SDS011;8717;53.588;10.176;2023-05-10T05:10:39;4.67;;;3.43;;
17201;SDS011;8717;53.588;10.176;2023-05-10T05:13:06;6.23;;;3.93;;
17201;SDS011;8717;53.588;10.176;2023-05-10T05:15:33;6.90;;;3.90;;
17201;SDS011;8717;53.588;10.176;2023-05-10T05:18:00;5.60;;;3.57;;
17201;SDS011;8717;53.588;10.176;2023-05-10T05:20:26;5.60;;;3.53;;
17201;SDS011;8717;53.588;10.176;2023-05-10T05:22:53;5.67;;;3.87;;
17201;SDS011;8717;53.588;10.176;2023-05-10T05:25:20;3.97;;;3.57;;
17201;SDS011;8717;53.588;10.176;2023-05-10T05:27:49;6.97;;;3.60;;
17201;SDS011;8717;53.588;10.176;2023-05-10T05:30:16;6.23;;;4.63;;
17201;SDS011;8717;53.588;10.176;2023-05-10T05:32:42;9.00;;;3.80;;
17201;SDS011;8717;53.588;10.176;2023-05-10T05:35:09;5.03;;;4.07;;
17201;SDS011;8717;53.588;10.176;2023-05-10T05:37:36;5.03;;;3.90;;
17201;SDS011;8717;53.588;10.176;2023-05-10T05:40:03;4.90;;;3.80;;
17201;SDS011;8717;53.588;10.176;2023-05-10T05:42:30;6.73;;;3.90;;
17201;SDS011;8717;53.588;10.176;2023-05-10T05:44:59;5.83;;;3.97;;
17201;SDS011;8717;53.588;10.176;2023-05-10T05:47:25;5.33;;;4.00;;
17201;SDS011;8717;53.588;10.176;2023-05-10T05:49:52;5.10;;;3.90;;
17201;SDS011;8717;53.588;10.176;2023-05-10T05:52:19;6.83;;;4.10;;
17201;SDS011;8717;53.588;10.176;2023-05-10T05:54:46;4.83;;;3.50;;
17201;SDS011;8717;53.588;10.176;2023-05-10T05:57:13;6.77;;;4.00;;
17201;SDS011;8717;53.588;10.176;2023-05-10T05:59:39;6.77;;;4.00;;
17201;SDS011;8717;53.588;10.176;2023-05-10T06:02:10;6.17;;;4.00;;
17201;SDS011;8717;53.588;10.176;2023-05-10T06:04:37;4.47;;;3.97;;
17201;SDS011;8717;53.588;10.176;2023-05-10T06:07:04;5.60;;;3.97;;
17201;SDS011;8717;53.588;10.176;2023-05-10T06:09:33;5.23;;;4.00;;
17201;SDS011;8717;53.588;10.176;2023-05-10T06:12:00;4.40;;;3.53;;
17201;SDS011;8717;53.588;10.176;2023-05-10T06:14:27;4.90;;;3.73;;
17201;SDS011;8717;53.588;10.176;2023-05-10T06:16:53;5.10;;;3.80;;
17201;SDS011;8717;53.588;10.176;2023-05-10T06:19:21;4.10;;;3.70;;
17201;SDS011;8717;53.588;10.176;2023-05-10T06:21:48;6.93;;;4.57;;
17201;SDS011;8717;53.588;10.176;2023-05-10T06:24:15;4.27;;;3.80;;
17201;SDS011;8717;53.588;10.176;2023-05-10T06:26:41;4.67;;;3.90;;
17201;SDS011;8717;53.588;10.176;2023-05-10T06:29:08;4.50;;;3.60;;
17201;SDS011;8717;53.588;10.176;2023-05-10T06:31:34;5.07;;;3.97;;
17201;SDS011;8717;53.588;10.176;2023-05-10T06:34:01;5.07;;;3.57;;
17201;SDS011;8717;53.588;10.176;2023-05-10T06:36:29;5.60;;;3.63;;
17201;SDS011;8717;53.588;10.176;2023-05-10T06:38:56;5.10;;;3.90;;
17201;SDS011;8717;53.588;10.176;2023-05-10T06:41:22;5.10;;;3.87;;
17201;SDS011;8717;53.588;10.176;2023-05-10T06:43:49;4.67;;;4.17;;
17201;SDS011;8717;53.588;10.176;2023-05-10T06:46:16;5.20;;;4.30;;
17201;SDS011;8717;53.588;10.176;2023-05-10T06:48:43;5.30;;;4.07;;
17201;SDS011;8717;53.588;10.176;2023-05-10T06:51:09;4.83;;;3.90;;
17201;SDS011;8717;53.588;10.176;2023-05-10T06:53:37;4.43;;;4.00;;
17201;SDS011;8717;53.588;10.176;2023-05-10T06:56:04;5.37;;;3.80;;
17201;SDS011;8717;53.588;10.176;2023-05-10T06:58:31;6.00;;;4.27;;
17201;SDS011;8717;53.588;10.176;2023-05-10T07:01:01;5.00;;;4.10;;
17201;SDS011;8717;53.588;10.176;2023-05-10T07:03:28;4.70;;;3.90;;
17201;SDS011;8717;53.588;10.176;2023-05-10T07:05:59;5.23;;;4.43;;
17201;SDS011;8717;53.588;10.176;2023-05-10T07:08:26;5.77;;;3.50;;
17201;SDS011;8717;53.588;10.176;2023-05-10T07:10:57;4.75;;;3.70;;
17201;SDS011;8717;53.588;10.176;2023-05-10T07:13:26;5.30;;;3.90;;
17201;SDS011;8717;53.588;10.176;2023-05-10T07:15:52;5.15;;;3.80;;
17201;SDS011;8717;53.588;10.176;2023-05-10T07:18:19;7.30;;;3.90;;
17201;SDS011;8717;53.588;10.176;2023-05-10T07:20:45;6.20;;;3.50;;
17201;SDS011;8717;53.588;10.176;2023-05-10T07:23:12;5.00;;;3.63;;
17201;SDS011;8717;53.588;10.176;2023-05-10T07:25:39;7.63;;;3.83;;
17201;SDS011;8717;53.588;10.176;2023-05-10T07:28:07;7.80;;;3.80;;
17201;SDS011;8717;53.588;10.176;2023-05-10T07:30:36;4.05;;;3.47;;
17201;SDS011;8717;53.588;10.176;2023-05-10T07:33:02;4.68;;;3.67;;
17201;SDS011;8717;53.588;10.176;2023-05-10T07:35:29;8.85;;;3.80;;
17201;SDS011;8717;53.588;10.176;2023-05-10T07:37:56;4.63;;;3.83;;
17201;SDS011;8717;53.588;10.176;2023-05-10T07:40:22;6.03;;;3.70;;
17201;SDS011;8717;53.588;10.176;2023-05-10T07:42:49;4.43;;;3.75;;
17201;SDS011;8717;53.588;10.176;2023-05-10T07:45:17;3.40;;;3.10;;
17201;SDS011;8717;53.588;10.176;2023-05-10T07:47:44;4.35;;;3.88;;
17201;SDS011;8717;53.588;10.176;2023-05-10T07:50:13;4.00;;;3.60;;
17201;SDS011;8717;53.588;10.176;2023-05-10T07:52:40;6.57;;;3.47;;
17201;SDS011;8717;53.588;10.176;2023-05-10T07:55:08;4.00;;;3.60;;
17201;SDS011;8717;53.588;10.176;2023-05-10T07:57:35;5.30;;;3.40;;
17201;SDS011;8717;53.588;10.176;2023-05-10T08:00:02;4.43;;;3.42;;
17201;SDS011;8717;53.588;10.176;2023-05-10T08:02:39;6.90;;;4.30;;
17201;SDS011;8717;53.588;10.176;2023-05-10T08:05:07;4.35;;;3.40;;
17201;SDS011;8717;53.588;10.176;2023-05-10T08:07:34;4.47;;;3.40;;
17201;SDS011;8717;53.588;10.176;2023-05-10T08:10:01;5.78;;;3.65;;
17201;SDS011;8717;53.588;10.176;2023-05-10T08:12:28;4.00;;;3.60;;
17201;SDS011;8717;53.588;10.176;2023-05-10T08:14:55;5.80;;;3.42;;
17201;SDS011;8717;53.588;10.176;2023-05-10T08:17:22;8.25;;;3.47;;
17201;SDS011;8717;53.588;10.176;2023-05-10T08:19:50;5.90;;;3.58;;
17201;SDS011;8717;53.588;10.176;2023-05-10T08:22:16;5.95;;;3.47;;
17201;SDS011;8717;53.588;10.176;2023-05-10T08:24:43;6.00;;;3.88;;
17201;SDS011;8717;53.588;10.176;2023-05-10T08:27:10;4.72;;;3.38;;
17201;SDS011;8717;53.588;10.176;2023-05-10T08:29:37;4.28;;;3.72;;
17201;SDS011;8717;53.588;10.176;2023-05-10T08:32:04;3.95;;;3.55;;
17201;SDS011;8717;53.588;10.176;2023-05-10T08:34:30;4.75;;;3.45;;
17201;SDS011;8717;53.588;10.176;2023-05-10T08:36:58;6.60;;;4.00;;
17201;SDS011;8717;53.588;10.176;2023-05-10T08:39:25;5.10;;;3.90;;
17201;SDS011;8717;53.588;10.176;2023-05-10T08:41:52;4.97;;;3.50;;
17201;SDS011;8717;53.588;10.176;2023-05-10T08:44:24;4.82;;;3.55;;
17201;SDS011;8717;53.588;10.176;2023-05-10T08:46:52;7.10;;;3.65;;
17201;SDS011;8717;53.588;10.176;2023-05-10T08:49:20;4.35;;;3.95;;
17201;SDS011;8717;53.588;10.176;2023-05-10T08:51:49;8.10;;;3.97;;
17201;SDS011;8717;53.588;10.176;2023-05-10T08:54:19;6.30;;;4.00;;
17201;SDS011;8717;53.588;10.176;2023-05-10T08:56:47;4.60;;;4.10;;
17201;SDS011;8717;53.588;10.176;2023-05-10T08:59:14;5.47;;;3.30;;
17201;SDS011;8717;53.588;10.176;2023-05-10T09:01:41;6.18;;;4.03;;
17201;SDS011;8717;53.588;10.176;2023-05-10T09:04:10;4.53;;;4.10;;
17201;SDS011;8717;53.588;10.176;2023-05-10T09:06:37;5.03;;;4.30;;
17201;SDS011;8717;53.588;10.176;2023-05-10T09:09:04;4.30;;;3.90;;
17201;SDS011;8717;53.588;10.176;2023-05-10T09:11:32;4.10;;;3.70;;
17201;SDS011;8717;53.588;10.176;2023-05-10T09:14:00;8.05;;;4.35;;
17201;SDS011;8717;53.588;10.176;2023-05-10T09:16:27;4.60;;;3.97;;
17201;SDS011;8717;53.588;10.176;2023-05-10T09:18:54;4.75;;;4.20;;
17201;SDS011;8717;53.588;10.176;2023-05-10T09:21:20;6.00;;;4.30;;
17201;SDS011;8717;53.588;10.176;2023-05-10T09:23:47;5.38;;;3.80;;
17201;SDS011;8717;53.588;10.176;2023-05-10T09:26:15;7.13;;;4.35;;
17201;SDS011;8717;53.588;10.176;2023-05-10T09:28:53;5.65;;;4.20;;
17201;SDS011;8717;53.588;10.176;2023-05-10T09:31:22;6.50;;;4.20;;
17201;SDS011;8717;53.588;10.176;2023-05-10T09:33:50;5.03;;;4.22;;
17201;SDS011;8717;53.588;10.176;2023-05-10T09:36:17;6.65;;;4.07;;
17201;SDS011;8717;53.588;10.176;2023-05-10T09:38:47;4.20;;;3.47;;
17201;SDS011;8717;53.588;10.176;2023-05-10T09:41:17;4.50;;;3.67;;
17201;SDS011;8717;53.588;10.176;2023-05-10T09:43:45;6.95;;;3.83;;
17201;SDS011;8717;53.588;10.176;2023-05-10T09:46:13;5.80;;;4.18;;
17201;SDS011;8717;53.588;10.176;2023-05-10T09:48:41;6.72;;;4.25;;
17201;SDS011;8717;53.588;10.176;2023-05-10T09:51:09;7.10;;;4.47;;
17201;SDS011;8717;53.588;10.176;2023-05-10T09:53:36;8.30;;;4.50;;
17201;SDS011;8717;53.588;10.176;2023-05-10T09:56:03;5.35;;;4.32;;
17201;SDS011;8717;53.588;10.176;2023-05-10T09:58:29;7.00;;;4.53;;
17201;SDS011;8717;53.588;10.176;2023-05-10T10:00:56;4.95;;;4.43;;
17201;SDS011;8717;53.588;10.176;2023-05-10T10:03:25;5.10;;;4.60;;
17201;SDS011;8717;53.588;10.176;2023-05-10T10:05:51;6.90;;;4.22;;
17201;SDS011;8717;53.588;10.176;2023-05-10T10:08:21;5.43;;;4.85;;
17201;SDS011;8717;53.588;10.176;2023-05-10T10:10:47;6.17;;;4.40;;
17201;SDS011;8717;53.588;10.176;2023-05-10T10:13:15;5.00;;;4.50;;
17201;SDS011;8717;53.588;10.176;2023-05-10T10:15:42;8.27;;;4.78;;
17201;SDS011;8717;53.588;10.176;2023-05-10T10:18:12;6.40;;;4.50;;
17201;SDS011;8717;53.588;10.176;2023-05-10T10:20:40;5.00;;;4.17;;
17201;SDS011;8717;53.588;10.176;2023-05-10T10:23:07;7.43;;;4.50;;
17201;SDS011;8717;53.588;10.176;2023-05-10T10:25:34;6.67;;;4.70;;
17201;SDS011;8717;53.588;10.176;2023-05-10T10:28:08;5.97;;;5.10;;
17201;SDS011;8717;53.588;10.176;2023-05-10T10:30:42;5.73;;;5.13;;
17201;SDS011;8717;53.588;10.176;2023-05-10T10:33:28;5.93;;;5.20;;
17201;SDS011;8717;53.588;10.176;2023-05-10T10:36:06;7.43;;;6.07;;
17201;SDS011;8717;53.588;10.176;2023-05-10T10:38:36;7.43;;;6.27;;
17201;SDS011;8717;53.588;10.176;2023-05-10T10:41:09;6.93;;;6.23;;
17201;SDS011;8717;53.588;10.176;2023-05-10T10:43:36;6.70;;;6.00;;
17201;SDS011;8717;53.588;10.176;2023-05-10T10:46:10;9.23;;;6.57;;
17201;SDS011;8717;53.588;10.176;2023-05-10T10:48:38;7.40;;;6.67;;
17201;SDS011;8717;53.588;10.176;2023-05-10T10:51:06;8.90;;;6.83;;
17201;SDS011;8717;53.588;10.176;2023-05-10T10:53:33;7.23;;;6.53;;
17201;SDS011;8717;53.588;10.176;2023-05-10T10:56:10;7.97;;;7.03;;
17201;SDS011;8717;53.588;10.176;2023-05-10T10:58:40;7.97;;;7.10;;
17201;SDS011;8717;53.588;10.176;2023-05-10T11:01:11;8.20;;;7.40;;
17201;SDS011;8717;53.588;10.176;2023-05-10T11:03:39;8.10;;;7.30;;
17201;SDS011;8717;53.588;10.176;2023-05-10T11:06:07;9.03;;;7.37;;
17201;SDS011;8717;53.588;10.176;2023-05-10T11:08:34;9.00;;;8.10;;
17201;SDS011;8717;53.588;10.176;2023-05-10T11:11:08;8.53;;;7.63;;
17201;SDS011;8717;53.588;10.176;2023-05-10T11:13:39;8.33;;;7.40;;
17201;SDS011;8717;53.588;10.176;2023-05-10T11:16:17;9.50;;;7.80;;
17201;SDS011;8717;53.588;10.176;2023-05-10T11:21:44;10.70;;;8.37;;
17201;SDS011;8717;53.588;10.176;2023-05-10T11:24:13;9.93;;;8.53;;
17201;SDS011;8717;53.588;10.176;2023-05-10T11:26:41;7.57;;;6.83;;
17201;SDS011;8717;53.588;10.176;2023-05-10T11:29:08;11.57;;;8.23;;
17201;SDS011;8717;53.588;10.176;2023-05-10T11:31:35;8.13;;;7.23;;
17201;SDS011;8717;53.588;10.176;2023-05-10T11:34:08;9.93;;;7.63;;
17201;SDS011;8717;53.588;10.176;2023-05-10T11:36:37;10.10;;;7.70;;
17201;SDS011;8717;53.588;10.176;2023-05-10T11:39:04;9.60;;;8.00;;
17201;SDS011;8717;53.588;10.176;2023-05-10T11:41:31;9.27;;;7.90;;
17201;SDS011;8717;53.588;10.176;2023-05-10T11:43:58;9.20;;;8.30;;
17201;SDS011;8717;53.588;10.176;2023-05-10T11:46:25;9.57;;;8.07;;
17201;SDS011;8717;53.588;10.176;2023-05-10T11:48:55;8.67;;;7.77;;
17201;SDS011;8717;53.588;10.176;2023-05-10T11:51:25;9.13;;;7.50;;
17201;SDS011;8717;53.588;10.176;2023-05-10T11:53:54;9.77;;;8.43;;
17201;SDS011;8717;53.588;10.176;2023-05-10T11:56:21;9.03;;;7.77;;
17201;SDS011;8717;53.588;10.176;2023-05-10T11:58:52;9.20;;;7.80;;
17201;SDS011;8717;53.588;10.176;2023-05-10T12:01:21;9.57;;;7.87;;
17201;SDS011;8717;53.588;10.176;2023-05-10T12:03:49;11.10;;;9.20;;
17201;SDS011;8717;53.588;10.176;2023-05-10T12:06:16;8.93;;;7.93;;
17201;SDS011;8717;53.588;10.176;2023-05-10T12:08:44;9.80;;;8.27;;
17201;SDS011;8717;53.588;10.176;2023-05-10T12:11:13;8.57;;;7.60;;
17201;SDS011;8717;53.588;10.176;2023-05-10T12:13:41;10.50;;;8.23;;
17201;SDS011;8717;53.588;10.176;2023-05-10T12:16:14;10.43;;;7.83;;
17201;SDS011;8717;53.588;10.176;2023-05-10T12:18:42;10.13;;;7.80;;
17201;SDS011;8717;53.588;10.176;2023-05-10T12:21:09;9.27;;;7.53;;
17201;SDS011;8717;53.588;10.176;2023-05-10T12:23:37;9.37;;;8.10;;
17201;SDS011;8717;53.588;10.176;2023-05-10T12:26:04;9.90;;;7.87;;
17201;SDS011;8717;53.588;10.176;2023-05-10T12:28:33;10.83;;;8.97;;
17201;SDS011;8717;53.588;10.176;2023-05-10T12:31:00;8.93;;;8.03;;
17201;SDS011;8717;53.588;10.176;2023-05-10T12:33:35;9.10;;;8.27;;
17201;SDS011;8717;53.588;10.176;2023-05-10T12:36:04;9.03;;;8.17;;
17201;SDS011;8717;53.588;10.176;2023-05-10T12:38:32;9.00;;;8.10;;
17201;SDS011;8717;53.588;10.176;2023-05-10T12:41:00;9.83;;;8.80;;
17201;SDS011;8717;53.588;10.176;2023-05-10T12:43:27;9.85;;;8.85;;
17201;SDS011;8717;53.588;10.176;2023-05-10T12:45:56;9.80;;;7.73;;
17201;SDS011;8717;53.588;10.176;2023-05-10T12:48:23;9.83;;;7.77;;
17201;SDS011;8717;53.588;10.176;2023-05-10T12:50:53;8.80;;;7.87;;
17201;SDS011;8717;53.588;10.176;2023-05-10T12:53:20;8.53;;;7.63;;
17201;SDS011;8717;53.588;10.176;2023-05-10T12:55:47;8.57;;;7.55;;
17201;SDS011;8717;53.588;10.176;2023-05-10T12:58:13;9.20;;;8.30;;
17201;SDS011;8717;53.588;10.176;2023-05-10T13:00:40;10.03;;;9.03;;
17201;SDS011;8717;53.588;10.176;2023-05-10T13:03:10;7.23;;;6.43;;
17201;SDS011;8717;53.588;10.176;2023-05-10T13:05:36;10.13;;;7.07;;
17201;SDS011;8717;53.588;10.176;2023-05-10T13:08:03;8.70;;;7.67;;
17201;SDS011;8717;53.588;10.176;2023-05-10T13:10:30;7.53;;;6.83;;
17201;SDS011;8717;53.588;10.176;2023-05-10T13:12:58;7.77;;;6.93;;
17201;SDS011;8717;53.588;10.176;2023-05-10T13:15:25;6.73;;;6.07;;
17201;SDS011;8717;53.588;10.176;2023-05-10T13:17:52;7.10;;;6.10;;
17201;SDS011;8717;53.588;10.176;2023-05-10T13:20:21;6.43;;;5.13;;
17201;SDS011;8717;53.588;10.176;2023-05-10T13:22:47;5.88;;;5.18;;
17201;SDS011;8717;53.588;10.176;2023-05-10T13:25:14;6.70;;;6.00;;
17201;SDS011;8717;53.588;10.176;2023-05-10T13:27:41;6.78;;;6.07;;
17201;SDS011;8717;53.588;10.176;2023-05-10T13:30:08;7.28;;;6.55;;
17201;SDS011;8717;53.588;10.176;2023-05-10T13:32:36;7.35;;;6.50;;
17201;SDS011;8717;53.588;10.176;2023-05-10T13:35:03;8.10;;;6.95;;
17201;SDS011;8717;53.588;10.176;2023-05-10T13:37:32;10.02;;;7.30;;
17201;SDS011;8717;53.588;10.176;2023-05-10T13:40:02;8.05;;;7.25;;
17201;SDS011;8717;53.588;10.176;2023-05-10T13:42:29;7.50;;;6.80;;
17201;SDS011;8717;53.588;10.176;2023-05-10T13:44:58;8.00;;;7.13;;
17201;SDS011;8717;53.588;10.176;2023-05-10T13:47:25;7.15;;;6.55;;
17201;SDS011;8717;53.588;10.176;2023-05-10T13:49:52;8.20;;;7.38;;
17201;SDS011;8717;53.588;10.176;2023-05-10T13:52:18;7.65;;;6.93;;
17201;SDS011;8717;53.588;10.176;2023-05-10T13:54:46;5.82;;;5.32;;
17201;SDS011;8717;53.588;10.176;2023-05-10T13:57:13;7.57;;;6.78;;
17201;SDS011;8717;53.588;10.176;2023-05-10T13:59:41;6.75;;;6.10;;
17201;SDS011;8717;53.588;10.176;2023-05-10T14:02:08;6.95;;;6.25;;
17201;SDS011;8717;53.588;10.176;2023-05-10T14:04:35;6.38;;;5.78;;
17201;SDS011;8717;53.588;10.176;2023-05-10T14:07:02;6.35;;;5.38;;
17201;SDS011;8717;53.588;10.176;2023-05-10T14:09:29;6.55;;;5.72;;
17201;SDS011;8717;53.588;10.176;2023-05-10T14:11:57;5.75;;;5.22;;
17201;SDS011;8717;53.588;10.176;2023-05-10T14:14:24;5.78;;;4.85;;
17201;SDS011;8717;53.588;10.176;2023-05-10T14:16:51;6.50;;;5.38;;
17201;SDS011;8717;53.588;10.176;2023-05-10T14:19:17;6.72;;;4.40;;
17201;SDS011;8717;53.588;10.176;2023-05-10T14:21:44;5.47;;;4.97;;
17201;SDS011;8717;53.588;10.176;2023-05-10T14:24:11;4.20;;;3.80;;
17201;SDS011;8717;53.588;10.176;2023-05-10T14:26:37;4.85;;;4.45;;
17201;SDS011;8717;53.588;10.176;2023-05-10T14:29:05;4.18;;;3.83;;
17201;SDS011;8717;53.588;10.176;2023-05-10T14:31:32;4.47;;;3.80;;
17201;SDS011;8717;53.588;10.176;2023-05-10T14:33:59;4.47;;;4.07;;
17201;SDS011;8717;53.588;10.176;2023-05-10T14:36:25;5.15;;;4.57;;
17201;SDS011;8717;53.588;10.176;2023-05-10T14:38:52;4.70;;;4.25;;
17201;SDS011;8717;53.588;10.176;2023-05-10T14:41:19;4.80;;;4.40;;
17201;SDS011;8717;53.588;10.176;2023-05-10T14:43:45;6.43;;;4.68;;
17201;SDS011;8717;53.588;10.176;2023-05-10T14:46:13;5.20;;;4.70;;
17201;SDS011;8717;53.588;10.176;2023-05-10T14:48:40;5.45;;;4.75;;
17201;SDS011;8717;53.588;10.176;2023-05-10T14:51:07;7.00;;;5.65;;
17201;SDS011;8717;53.588;10.176;2023-05-10T14:53:34;5.18;;;4.78;;
17201;SDS011;8717;53.588;10.176;2023-05-10T14:56:01;5.40;;;4.90;;
17201;SDS011;8717;53.588;10.176;2023-05-10T14:58:28;6.15;;;5.55;;
17201;SDS011;8717;53.588;10.176;2023-05-10T15:00:55;5.40;;;4.90;;